Main page
METAR-TAF:

METAR-TAF

Airports :

Wattisham Flying Station

Wattisham, England

latitude: 52-07N, longitude: 000-58E, elevation: 87 m

Current weather observation

The report was made 1 hour and 3 minutes ago, at 15:50 UTC
Wind 6 kt from the East/Southeast
Temperature 13°C
Humidity 62%
Pressure 1017 hPa
Visibility 10 km or more
Scattered clouds at a height of 3000 ft
Broken clouds at a height of 4500 ft

METAR: EGUW 201550Z 12006KT 9999 SCT030 BKN045 13/06 Q1017 NOSIG RMK BLU BLU

Time: 17:53 (16:53 UTC)

Forecast

The report was made 3 hours and 21 minutes ago, at 13:32 UTC
Forecast valid from 20 at 15 UTC to 20 at 24 UTC
Wind 7 kt from the East/Southeast
Visibility 10 km or more
Scattered clouds at a height of 3000 ft
Probability 30%
from 20 at 21 UTC to 20 at 22 UTC
Visibility: 5000 m
mist
Becoming
from 20 at 22 UTC to 20 at 24 UTC
Visibility: 2000 m
mist

TAF: EGUW 201332Z 2015/2024 11007KT 9999 SCT030 PROB30 2021/2022 5000 BR BECMG 2022/2024 2000 BR

Weather observations and forecasts of more than 4000 airports (METAR and TAF reports).

The available stations are represented by yellow and red dots on the map.

Hover mouse over dot to see the name of the station.

Then click to see weather observations and forecasts.

To change the map : click on the green buttons with a black cross to zoom in, on the green button with a dash to zoom out, or on the green arrows for adjacent maps.


METAR-TAF: